createdAt,value
2022-09-18T00:02:23.357Z,100983.78
2022-09-18T00:05:20.755Z,100977.19
2022-09-18T00:08:17.595Z,100980.72
2022-09-18T00:11:15.428Z,100982.16
2022-09-18T00:14:15.147Z,100976.03
2022-09-18T00:17:12.021Z,100973.22
2022-09-18T00:20:09.428Z,100984.00
2022-09-18T00:23:06.794Z,100985.09
2022-09-18T00:26:04.443Z,100979.59
2022-09-18T00:29:02.126Z,100980.75
2022-09-18T00:31:59.948Z,100987.75
2022-09-18T00:34:56.645Z,100994.34
2022-09-18T00:37:53.947Z,100997.72
2022-09-18T00:40:50.778Z,100988.06
2022-09-18T00:43:47.860Z,100992.59
2022-09-18T00:46:45.329Z,100993.66
2022-09-18T00:49:46.162Z,100996.31
2022-09-18T00:53:00.317Z,100991.75
2022-09-18T00:55:57.959Z,100990.69
2022-09-18T00:58:54.967Z,100990.06
2022-09-18T01:01:51.939Z,100993.25
2022-09-18T01:04:48.974Z,100999.03
2022-09-18T01:08:18.274Z,100991.41
2022-09-18T01:11:31.230Z,100997.25
2022-09-18T01:14:36.929Z,100993.00
2022-09-18T01:17:36.358Z,100991.91
2022-09-18T01:21:01.339Z,100997.41
2022-09-18T01:24:13.792Z,100992.22
2022-09-18T01:27:32.565Z,100991.19
2022-09-18T01:30:29.826Z,100987.94
2022-09-18T01:33:47.538Z,100984.31
2022-09-18T01:36:46.124Z,100975.03
2022-09-18T01:40:06.322Z,100977.28
2022-09-18T01:43:06.750Z,100976.22
2022-09-18T01:46:06.740Z,100973.28
2022-09-18T01:49:08.577Z,100971.47
2022-09-18T01:52:19.216Z,100962.78
2022-09-18T01:55:18.249Z,100965.59
2022-09-18T01:58:17.796Z,100969.16
2022-09-18T02:01:15.567Z,100964.44
2022-09-18T02:04:15.666Z,100964.81
2022-09-18T02:07:14.746Z,100967.31
2022-09-18T02:10:11.918Z,100960.50
2022-09-18T02:13:09.940Z,100955.06
2022-09-18T02:16:16.205Z,100955.44
2022-09-18T02:19:15.781Z,100956.84
2022-09-18T02:22:15.591Z,100965.44
2022-09-18T02:25:18.469Z,100963.63
2022-09-18T02:28:18.098Z,100959.81
2022-09-18T02:31:14.757Z,100954.94
2022-09-18T02:34:13.091Z,100949.00
2022-09-18T02:37:35.382Z,100954.97
2022-09-18T02:40:48.065Z,100938.94
2022-09-18T02:43:54.814Z,100951.09
2022-09-18T02:47:00.771Z,100928.47
2022-09-18T02:50:16.057Z,100932.56
2022-09-18T02:53:23.863Z,100940.47
2022-09-18T02:56:26.493Z,100943.34
2022-09-18T02:59:42.111Z,100944.53
2022-09-18T03:02:43.356Z,100934.09
2022-09-18T03:05:40.551Z,100937.59
2022-09-18T03:08:37.971Z,100936.38
2022-09-18T03:11:37.154Z,100938.53
2022-09-18T03:14:34.476Z,100947.44
2022-09-18T03:17:32.170Z,100939.63
2022-09-18T03:20:29.150Z,100933.13
2022-09-18T03:23:26.159Z,100941.56
2022-09-18T03:26:32.312Z,100934.03
2022-09-18T03:29:30.200Z,100934.28
2022-09-18T03:32:28.212Z,100933.13
2022-09-18T03:35:25.518Z,100948.53
2022-09-18T03:38:24.620Z,100931.94
2022-09-18T03:41:22.891Z,100934.44
2022-09-18T03:44:19.725Z,100945.06
2022-09-18T03:47:17.039Z,100943.09
2022-09-18T03:50:15.097Z,100939.09
2022-09-18T03:53:12.669Z,100933.72
2022-09-18T03:56:18.316Z,100935.34
2022-09-18T03:59:41.136Z,100924.03
2022-09-18T04:03:12.035Z,100920.19
2022-09-18T04:06:32.278Z,100931.69
2022-09-18T04:10:02.308Z,100924.03
2022-09-18T04:13:01.393Z,100926.59
2022-09-18T04:16:02.945Z,100925.75
2022-09-18T04:19:00.166Z,100921.50
2022-09-18T04:21:57.109Z,100922.91
2022-09-18T04:24:54.147Z,100917.69
2022-09-18T04:27:52.248Z,100918.88
2022-09-18T04:30:51.175Z,100929.38
2022-09-18T04:33:48.405Z,100921.00
2022-09-18T04:36:47.150Z,100920.41
2022-09-18T04:39:44.465Z,100927.31
2022-09-18T04:42:42.070Z,100918.47
2022-09-18T04:45:39.078Z,100914.00
2022-09-18T04:48:36.167Z,100909.59
2022-09-18T04:51:34.849Z,100898.72
2022-09-18T04:54:32.271Z,100906.84
2022-09-18T04:57:29.285Z,100898.09
2022-09-18T05:00:25.984Z,100893.22
2022-09-18T05:03:22.844Z,100892.34
2022-09-18T05:06:20.685Z,100893.56
2022-09-18T05:09:18.237Z,100897.06
2022-09-18T05:12:14.804Z,100881.72
2022-09-18T05:15:12.397Z,100888.53
2022-09-18T05:18:11.776Z,100891.00
2022-09-18T05:21:09.736Z,100903.41
2022-09-18T05:24:06.903Z,100909.38
2022-09-18T05:27:04.537Z,100899.31
2022-09-18T05:30:02.351Z,100897.66
2022-09-18T05:33:19.262Z,100903.81
2022-09-18T05:36:16.202Z,100896.22
2022-09-18T05:39:17.566Z,100885.81
2022-09-18T05:42:15.063Z,100899.97
2022-09-18T05:45:14.836Z,100895.03
2022-09-18T05:48:15.292Z,100901.81
2022-09-18T05:51:12.279Z,100906.91
2022-09-18T05:54:10.271Z,100908.72
2022-09-18T05:57:11.912Z,100909.53
2022-09-18T06:00:10.265Z,100909.53
2022-09-18T06:03:17.357Z,100910.13
2022-09-18T06:06:14.264Z,100907.25
2022-09-18T06:09:10.997Z,100922.19
2022-09-18T06:12:08.597Z,100916.72
2022-09-18T06:15:07.210Z,100903.75
2022-09-18T06:18:06.854Z,100911.69
2022-09-18T06:21:04.342Z,100905.22
2022-09-18T06:24:02.484Z,100909.31
2022-09-18T06:27:23.195Z,100904.38
2022-09-18T06:30:20.325Z,100907.03
2022-09-18T06:33:17.047Z,100909.97
2022-09-18T06:36:16.656Z,100907.44
2022-09-18T06:39:34.047Z,100910.75
2022-09-18T06:42:31.961Z,100902.72
2022-09-18T06:45:53.149Z,100905.72
2022-09-18T06:48:52.114Z,100901.66
2022-09-18T06:51:48.966Z,100911.91
2022-09-18T06:54:47.491Z,100909.91
2022-09-18T06:58:00.149Z,100914.03
2022-09-18T07:00:59.962Z,100917.78
2022-09-18T07:04:03.354Z,100911.75
2022-09-18T07:07:10.305Z,100910.50
2022-09-18T07:10:09.232Z,100917.69
2022-09-18T07:13:15.099Z,100928.63
2022-09-18T07:16:15.510Z,100928.91
2022-09-18T07:19:12.875Z,100935.31
2022-09-18T07:22:10.336Z,100929.75
2022-09-18T07:25:13.254Z,100918.69
2022-09-18T07:28:13.182Z,100907.19
2022-09-18T07:31:17.235Z,100908.56
2022-09-18T07:34:15.370Z,100902.81
2022-09-18T07:37:12.111Z,100909.91
2022-09-18T07:40:12.756Z,100893.25
2022-09-18T07:43:34.573Z,100901.50
2022-09-18T07:46:32.049Z,100901.41
2022-09-18T07:49:33.591Z,100900.25
2022-09-18T07:52:31.473Z,100902.44
2022-09-18T07:55:29.029Z,100910.84
2022-09-18T07:58:28.004Z,100920.19
2022-09-18T08:01:34.737Z,100893.66
2022-09-18T08:04:33.251Z,100896.75
2022-09-18T08:07:41.433Z,100879.16
2022-09-18T08:11:08.151Z,100873.19
2022-09-18T08:14:28.625Z,100876.84
2022-09-18T08:17:46.505Z,100880.06
2022-09-18T08:21:02.274Z,100891.66
2022-09-18T08:24:18.362Z,100891.00
2022-09-18T08:27:16.934Z,100879.88
2022-09-18T08:30:15.213Z,100890.94
2022-09-18T08:33:14.382Z,100890.66
2022-09-18T08:36:12.634Z,100891.50
2022-09-18T08:39:19.107Z,100893.41
2022-09-18T08:42:53.822Z,100897.50
2022-09-18T08:46:24.549Z,100892.91
2022-09-18T08:49:37.998Z,100895.56
2022-09-18T08:52:41.574Z,100903.97
2022-09-18T08:55:51.726Z,100905.72
2022-09-18T08:59:05.605Z,100902.25
2022-09-18T09:02:24.317Z,100908.47
2022-09-18T09:05:30.277Z,100906.72
2022-09-18T09:08:50.655Z,100915.66
2022-09-18T09:12:09.737Z,100910.41
2022-09-18T09:15:13.231Z,100906.66
2022-09-18T09:18:19.250Z,100902.53
2022-09-18T09:21:22.180Z,100908.31
2022-09-18T09:24:33.600Z,100911.38
2022-09-18T09:27:39.372Z,100904.16
2022-09-18T09:30:49.470Z,100896.25
2022-09-18T09:34:16.912Z,100900.63
2022-09-18T09:37:38.555Z,100902.72
2022-09-18T09:40:40.381Z,100897.50
2022-09-18T09:43:58.884Z,100899.44
2022-09-18T09:47:00.386Z,100901.34
2022-09-18T09:50:24.178Z,100899.88
2022-09-18T09:53:31.529Z,100898.53
2022-09-18T09:56:32.148Z,100905.28
2022-09-18T09:59:43.385Z,100897.88
2022-09-18T10:03:01.433Z,100903.81
2022-09-18T10:06:14.501Z,100906.47
2022-09-18T10:09:16.286Z,100903.63
2022-09-18T10:12:47.438Z,100909.66
2022-09-18T10:15:45.890Z,100898.88
2022-09-18T10:18:52.039Z,100910.84
2022-09-18T10:21:51.406Z,100886.44
2022-09-18T10:25:07.697Z,100876.25
2022-09-18T10:28:05.553Z,100878.97
2022-09-18T10:31:10.634Z,100877.97
2022-09-18T10:34:35.182Z,100866.72
2022-09-18T10:37:32.256Z,100866.19
2022-09-18T10:40:39.836Z,100877.41
2022-09-18T10:43:50.076Z,100877.41
2022-09-18T10:47:02.594Z,100870.56
2022-09-18T10:50:09.277Z,100858.13
2022-09-18T10:53:42.641Z,100872.00
2022-09-18T10:56:54.521Z,100862.19
2022-09-18T10:59:52.680Z,100870.94
2022-09-18T11:02:56.237Z,100865.56
2022-09-18T11:05:56.206Z,100851.13
2022-09-18T11:08:59.281Z,100862.56
2022-09-18T11:11:56.071Z,100850.59
2022-09-18T11:15:03.851Z,100861.63
2022-09-18T11:18:04.942Z,100857.25
2022-09-18T11:21:05.510Z,100858.03
2022-09-18T11:24:07.133Z,100854.78
2022-09-18T11:27:18.898Z,100845.94
2022-09-18T11:30:21.802Z,100836.81
2022-09-18T11:33:26.603Z,100847.56
2022-09-18T11:36:27.321Z,100839.63
2022-09-18T11:39:29.138Z,100851.13
2022-09-18T11:42:26.560Z,100846.72
2022-09-18T11:45:49.511Z,100850.03
2022-09-18T11:49:01.276Z,100841.34
2022-09-18T11:52:28.157Z,100845.69
2022-09-18T11:55:38.967Z,100850.13
2022-09-18T11:59:13.841Z,100843.44
2022-09-18T12:02:24.483Z,100836.25
2022-09-18T12:05:33.391Z,100840.25
2022-09-18T12:08:40.987Z,100836.06
2022-09-18T12:12:13.306Z,100851.75
2022-09-18T12:15:23.635Z,100844.09
2022-09-18T12:18:25.471Z,100839.19
2022-09-18T12:21:48.187Z,100830.47
2022-09-18T12:24:45.890Z,100838.78
2022-09-18T12:27:52.111Z,100834.56
2022-09-18T12:31:18.050Z,100831.41
2022-09-18T12:34:40.535Z,100830.88
2022-09-18T12:38:20.294Z,100816.81
2022-09-18T12:41:29.674Z,100827.69
2022-09-18T12:44:54.860Z,100809.97
2022-09-18T12:48:00.625Z,100804.94
2022-09-18T12:51:12.849Z,100803.16
2022-09-18T12:54:34.854Z,100803.66
2022-09-18T12:58:02.658Z,100810.50
2022-09-18T13:01:03.525Z,100802.34
2022-09-18T13:04:12.842Z,100788.72
2022-09-18T13:07:37.701Z,100779.38
2022-09-18T13:10:39.345Z,100792.13
2022-09-18T13:13:54.567Z,100784.47
2022-09-18T13:17:05.966Z,100795.97
2022-09-18T13:20:07.003Z,100796.88
2022-09-18T13:23:04.554Z,100785.38
2022-09-18T13:26:01.577Z,100782.69
2022-09-18T13:28:59.218Z,100787.06
2022-09-18T13:31:56.711Z,100776.72
2022-09-18T13:34:55.239Z,100759.66
2022-09-18T13:38:06.597Z,100762.09
2022-09-18T13:41:07.480Z,100765.53
2022-09-18T13:44:04.469Z,100762.72
2022-09-18T13:47:12.135Z,100753.88
2022-09-18T13:50:16.840Z,100754.09
2022-09-18T13:53:47.156Z,100734.00
2022-09-18T13:57:20.608Z,100749.41
2022-09-18T14:00:20.664Z,100745.19
2022-09-18T14:03:17.250Z,100748.84
2022-09-18T14:06:47.230Z,100747.56
2022-09-18T14:09:55.644Z,100735.13
2022-09-18T14:13:29.153Z,100743.88
2022-09-18T14:16:35.519Z,100744.38
2022-09-18T14:19:32.601Z,100743.31
2022-09-18T14:22:30.367Z,100752.81
2022-09-18T14:25:45.255Z,100746.75
2022-09-18T14:28:46.476Z,100747.97
2022-09-18T14:31:49.501Z,100743.13
2022-09-18T14:34:46.911Z,100734.84
2022-09-18T14:37:44.580Z,100740.03
2022-09-18T14:40:41.697Z,100736.84
2022-09-18T14:43:39.719Z,100755.06
2022-09-18T14:46:36.597Z,100767.28
2022-09-18T14:49:41.269Z,100766.13
2022-09-18T14:52:42.481Z,100757.84
2022-09-18T14:55:40.339Z,100757.63
2022-09-18T14:58:39.101Z,100755.06
2022-09-18T15:01:40.100Z,100755.88
2022-09-18T15:04:37.741Z,100751.56
2022-09-18T15:07:35.143Z,100753.06
2022-09-18T15:10:33.590Z,100742.28
2022-09-18T15:13:32.200Z,100743.38
2022-09-18T15:16:31.270Z,100744.84
2022-09-18T15:19:29.269Z,100732.38
2022-09-18T15:22:27.158Z,100738.13
2022-09-18T15:25:32.832Z,100734.84
2022-09-18T15:28:32.242Z,100737.09
2022-09-18T15:31:30.460Z,100730.25
2022-09-18T15:34:28.481Z,100741.28
2022-09-18T15:37:26.204Z,100734.25
2022-09-18T15:40:29.370Z,100724.72
2022-09-18T15:43:29.771Z,100727.03
2022-09-18T15:46:33.776Z,100732.47
2022-09-18T15:49:30.766Z,100746.13
2022-09-18T15:52:57.938Z,100739.50
2022-09-18T15:55:57.478Z,100749.63
2022-09-18T15:58:55.953Z,100744.09
2022-09-18T16:01:53.346Z,100742.28
2022-09-18T16:04:50.539Z,100740.78
2022-09-18T16:08:10.549Z,100742.16
2022-09-18T16:11:07.807Z,100740.38
2022-09-18T16:14:32.010Z,100741.50
2022-09-18T16:17:29.870Z,100739.22
2022-09-18T16:20:37.410Z,100723.66
2022-09-18T16:23:36.045Z,100723.44
2022-09-18T16:26:35.336Z,100720.25
2022-09-18T16:29:32.878Z,100726.38
2022-09-18T16:32:29.905Z,100719.69
2022-09-18T16:35:26.814Z,100723.13
2022-09-18T16:38:23.583Z,100738.84
2022-09-18T16:41:21.157Z,100734.56
2022-09-18T16:44:18.913Z,100741.81
2022-09-18T16:47:17.995Z,100738.38
2022-09-18T16:50:18.384Z,100740.38
2022-09-18T16:53:16.002Z,100738.16
2022-09-18T16:56:14.849Z,100739.06
2022-09-18T16:59:11.615Z,100740.41
2022-09-18T17:02:08.674Z,100749.78
2022-09-18T17:05:05.974Z,100742.84
2022-09-18T17:08:04.140Z,100746.78
2022-09-18T17:11:01.934Z,100744.47
2022-09-18T17:13:59.977Z,100752.63
2022-09-18T17:16:56.803Z,100742.19
2022-09-18T17:19:53.464Z,100750.22
2022-09-18T17:22:51.505Z,100743.16
2022-09-18T17:25:48.797Z,100746.88
2022-09-18T17:28:45.543Z,100751.72
2022-09-18T17:31:42.659Z,100752.16
2022-09-18T17:34:39.854Z,100761.34
2022-09-18T17:37:36.849Z,100758.19
2022-09-18T17:40:33.651Z,100766.38
2022-09-18T17:43:30.698Z,100764.31
2022-09-18T17:46:27.704Z,100767.69
2022-09-18T17:49:25.567Z,100774.69
2022-09-18T17:52:22.711Z,100784.66
2022-09-18T17:55:19.690Z,100786.00
2022-09-18T17:58:19.813Z,100783.97
2022-09-18T18:01:17.867Z,100783.38
2022-09-18T18:04:14.952Z,100781.44
2022-09-18T18:07:11.630Z,100781.72
2022-09-18T18:10:09.026Z,100785.28
2022-09-18T18:13:06.875Z,100780.47
2022-09-18T18:16:14.181Z,100779.19
2022-09-18T18:19:12.788Z,100782.47
2022-09-18T18:22:09.355Z,100779.47
2022-09-18T18:25:08.048Z,100783.31
2022-09-18T18:28:09.522Z,100766.50
2022-09-18T18:31:11.450Z,100776.72
2022-09-18T18:34:10.508Z,100778.91
2022-09-18T18:37:07.704Z,100777.19
2022-09-18T18:40:04.648Z,100783.88
2022-09-18T18:43:03.684Z,100785.88
2022-09-18T18:46:02.180Z,100789.84
2022-09-18T18:49:03.770Z,100794.81
2022-09-18T18:52:03.529Z,100797.00
2022-09-18T18:55:01.990Z,100793.88
2022-09-18T18:57:58.980Z,100790.59
2022-09-18T19:00:55.794Z,100788.59
2022-09-18T19:03:54.785Z,100786.41
2022-09-18T19:06:52.021Z,100797.25
2022-09-18T19:09:48.421Z,100799.53
2022-09-18T19:12:45.711Z,100809.69
2022-09-18T19:15:42.680Z,100805.66
2022-09-18T19:18:39.625Z,100808.75
2022-09-18T19:21:37.856Z,100808.56
2022-09-18T19:24:34.816Z,100809.19
2022-09-18T19:27:31.664Z,100817.50
2022-09-18T19:30:28.992Z,100816.22
2022-09-18T19:33:25.502Z,100818.03
2022-09-18T19:36:25.200Z,100824.50
2022-09-18T19:39:24.622Z,100819.16
2022-09-18T19:42:21.539Z,100842.88
2022-09-18T19:45:19.816Z,100836.13
2022-09-18T19:48:24.997Z,100839.00
2022-09-18T19:51:22.319Z,100843.53
2022-09-18T19:54:19.619Z,100845.38
2022-09-18T19:57:17.214Z,100851.59
2022-09-18T20:00:14.725Z,100855.84
2022-09-18T20:03:12.112Z,100846.94
2022-09-18T20:06:09.866Z,100851.91
2022-09-18T20:09:07.001Z,100848.53
2022-09-18T20:12:04.140Z,100851.75
2022-09-18T20:15:03.206Z,100865.53
2022-09-18T20:18:00.786Z,100863.16
2022-09-18T20:20:57.620Z,100868.56
2022-09-18T20:23:58.289Z,100873.06
2022-09-18T20:26:57.382Z,100892.69
2022-09-18T20:29:54.607Z,100889.81
2022-09-18T20:32:52.813Z,100893.59
2022-09-18T20:35:59.171Z,100907.97
2022-09-18T20:38:58.084Z,100917.06
2022-09-18T20:42:00.468Z,100901.16
2022-09-18T20:45:02.248Z,100909.81
2022-09-18T20:48:04.053Z,100925.78
2022-09-18T20:51:06.806Z,100929.06
2022-09-18T20:54:06.970Z,100936.84
2022-09-18T20:57:04.427Z,100933.56
2022-09-18T21:00:03.297Z,100919.22
2022-09-18T21:03:01.052Z,100917.16
2022-09-18T21:06:18.835Z,100930.88
2022-09-18T21:09:15.281Z,100942.56
2022-09-18T21:12:12.544Z,100948.06
2022-09-18T21:15:13.501Z,100958.13
2022-09-18T21:18:12.326Z,100961.88
2022-09-18T21:21:11.128Z,100957.25
2022-09-18T21:24:08.844Z,100958.75
2022-09-18T21:27:06.808Z,100966.81
2022-09-18T21:30:03.906Z,100958.91
2022-09-18T21:33:01.849Z,100969.97
2022-09-18T21:35:59.012Z,100970.69
2022-09-18T21:38:56.383Z,100967.03
2022-09-18T21:41:53.922Z,100970.59
2022-09-18T21:44:51.163Z,100975.97
2022-09-18T21:47:49.723Z,100974.88
2022-09-18T21:50:46.651Z,100973.72
2022-09-18T21:53:43.839Z,100980.38
2022-09-18T21:56:41.691Z,100983.22
2022-09-18T21:59:39.083Z,100981.69
2022-09-18T22:02:36.521Z,100988.34
2022-09-18T22:05:35.886Z,100989.75
2022-09-18T22:08:33.100Z,100991.00
2022-09-18T22:11:30.548Z,100987.81
2022-09-18T22:14:31.508Z,100995.50
2022-09-18T22:17:29.116Z,100996.84
2022-09-18T22:20:26.081Z,101008.25
2022-09-18T22:23:22.820Z,101002.19
2022-09-18T22:26:24.937Z,101003.41
2022-09-18T22:29:23.948Z,101014.50
2022-09-18T22:32:20.986Z,101023.34
2022-09-18T22:35:17.863Z,101027.22
2022-09-18T22:38:14.960Z,101021.81
2022-09-18T22:41:11.829Z,101023.25
2022-09-18T22:44:08.952Z,101030.66
2022-09-18T22:47:06.011Z,101039.13
2022-09-18T22:50:04.472Z,101033.47
2022-09-18T22:53:01.635Z,101043.00
2022-09-18T22:56:12.367Z,101037.34
2022-09-18T22:59:14.563Z,101039.09
2022-09-18T23:02:11.905Z,101040.59
2022-09-18T23:05:09.049Z,101039.66
2022-09-18T23:08:05.773Z,101030.28
2022-09-18T23:11:02.932Z,101036.56
2022-09-18T23:14:02.901Z,101040.13
2022-09-18T23:17:00.011Z,101055.91
2022-09-18T23:19:56.619Z,101053.81
2022-09-18T23:22:53.731Z,101059.78
2022-09-18T23:25:51.316Z,101058.06
2022-09-18T23:28:49.660Z,101061.84
2022-09-18T23:31:50.500Z,101057.75
2022-09-18T23:34:47.963Z,101053.03
2022-09-18T23:37:44.964Z,101063.44
2022-09-18T23:40:43.125Z,101060.47
2022-09-18T23:43:40.518Z,101078.06
2022-09-18T23:46:37.728Z,101069.25
2022-09-18T23:49:35.318Z,101070.63
2022-09-18T23:52:33.078Z,101067.31
2022-09-18T23:55:29.918Z,101075.38
2022-09-18T23:58:27.341Z,101076.75
